Audrey — PD9331 — position and weather

sailwx.info

Track history (hours):
 
Tides and Currents Weather Stations Pressure Air Temp Water Temp Dewpoint Dewpoint Depression Visibility Wind Speed Wind Dir Waves Ship Positions

Audrey

Last reported at 2016-May-01 08:28 UTC. Time now 2016-May-04 09:50 UTC.
Position N 51°40' E 006°29'.

Length 85 m; draft 2.7 m.

Type: Wing in ground effect craft. MMSI: 244660106.

Date/timePositionNaut miles runAvg speedWind from/ knotsBaromVisibWave heightAir tempDewpointWater temp
2016-May-01 08:28N 51°40' E 006°29'7 7.0
2016-May-01 07:32N 51°36' E 006°36'7 6.9
2016-May-01 06:33N 51°31' E 006°43'8 7.1
2016-May-01 05:28N 51°23' E 006°44'6 6.2
2016-May-01 04:28N 51°17' E 006°42'3 3.8
2016-May-01 03:33N 51°13' E 006°43'0 0.0
2016-May-01 02:33N 51°13' E 006°43'0 0.0
2016-May-01 01:33N 51°13' E 006°43'0 0.0
2016-May-01 00:33N 51°13' E 006°43'0 0.0
2016-Apr-30 23:33N 51°13' E 006°43'0 0.0
2016-Apr-30 22:33N 51°13' E 006°43'0 0.0
2016-Apr-30 21:33N 51°13' E 006°43'0 0.0
2016-Apr-30 20:33N 51°13' E 006°43'0 0.0
2016-Apr-30 19:34N 51°13' E 006°43'0 0.0
2016-Apr-30 18:34N 51°13' E 006°43'0 0.0
2016-Apr-30 17:33N 51°13' E 006°43'0 0.1
2016-Apr-30 16:33N 51°13' E 006°43'6 5.8
2016-Apr-30 15:33N 51°09' E 006°49'14 7.1
2016-Apr-30 13:31N 50°56' E 006°58'18 0.4
2016-Apr-28 16:26N 50°40' E 007°11'5 5.8
2016-Apr-28 15:33N 50°44' E 007°07'6 5.6
2016-Apr-28 14:30N 50°49' E 007°01'3 3.4
2016-Apr-28 13:33N 50°52' E 007°02'4 4.3
2016-Apr-28 12:30N 50°56' E 006°58'3 0.1
2016-Apr-27 16:26N 50°59' E 006°59'12 3.8
2016-Apr-27 13:17N 51°10' E 006°51'2 3.2
2016-Apr-27 12:34N 51°09' E 006°48'3 3.4
2016-Apr-27 11:33N 51°11' E 006°44'3 2.7
2016-Apr-27 10:33N 51°14' E 006°46'8 3.8
2016-Apr-27 08:32N 51°21' E 006°41'3 2.9
2016-Apr-27 07:31N 51°23' E 006°44'4 4.4
2016-Apr-27 06:31N 51°27' E 006°43'3 3.0
2016-Apr-27 05:33N 51°30' E 006°43'5 4.5
2016-Apr-27 04:33N 51°34' E 006°41'3 3.3
2016-Apr-27 03:31N 51°36' E 006°36'0 0.3
2016-Apr-27 02:33N 51°36' E 006°36'0 0.0
2016-Apr-27 01:32N 51°36' E 006°36'0 0.0
2016-Apr-27 00:18N 51°36' E 006°36'0 0.0
2016-Apr-26 23:28N 51°36' E 006°36'0 0.0
2016-Apr-26 22:29N 51°36' E 006°36'0 0.0
2016-Apr-26 21:25N 51°36' E 006°36'1 0.8
2016-Apr-26 20:33N 51°37' E 006°35'3 3.5
2016-Apr-26 19:33N 51°40' E 006°32'61 5.1
2016-Apr-26 07:33N 51°49' E 004°54'8 7.9
2016-Apr-26 06:33N 51°49' E 004°41'6 5.8
2016-Apr-26 05:29N 51°43' E 004°38'21 2.1
2016-Apr-25 19:32N 51°38' E 004°05'7 6.6
2016-Apr-25 18:34N 51°32' E 004°00'5 5.2
2016-Apr-25 17:33N 51°27' E 003°58'7 6.9
2016-Apr-25 16:32N 51°22' E 003°50'7 6.8
2016-Apr-25 15:34N 51°27' E 003°42'0 0.2
2016-Apr-25 14:33N 51°27' E 003°43'0 0.0
2016-Apr-25 13:33N 51°27' E 003°43'0 0.0
2016-Apr-25 12:33N 51°27' E 003°43'0 0.0
2016-Apr-25 11:33N 51°27' E 003°43'0 0.0
2016-Apr-25 10:33N 51°27' E 003°43'1 0.8
2016-Apr-25 09:33N 51°27' E 003°42'1 1.1
2016-Apr-25 08:33N 51°28' E 003°43'0 0.0
2016-Apr-25 07:33N 51°28' E 003°43'0 0.0
2016-Apr-25 06:33N 51°28' E 003°43'0 0.0
2016-Apr-25 05:33N 51°28' E 003°43'0 0.0
2016-Apr-25 04:33N 51°28' E 003°43'0 0.0
2016-Apr-25 03:33N 51°28' E 003°43'0 0.0
2016-Apr-25 02:33N 51°28' E 003°43'0 0.0
2016-Apr-25 01:33N 51°28' E 003°43'0 0.0
2016-Apr-25 00:33N 51°28' E 003°43'0 0.0
2016-Apr-24 23:33N 51°28' E 003°43'0 0.0
2016-Apr-24 22:33N 51°28' E 003°43'0 0.0
2016-Apr-24 21:34N 51°28' E 003°43'0 0.0
2016-Apr-24 20:33N 51°28' E 003°43'0 0.0
2016-Apr-24 19:33N 51°28' E 003°43'0 0.0
2016-Apr-24 18:33N 51°28' E 003°43'0 0.0
2016-Apr-24 17:34N 51°28' E 003°43'0 0.0
2016-Apr-24 16:33N 51°28' E 003°43'0 0.0
2016-Apr-24 15:33N 51°28' E 003°43'0 0.0
2016-Apr-24 14:33N 51°28' E 003°43'0 0.0
2016-Apr-24 13:33N 51°28' E 003°43'0 0.0
2016-Apr-24 12:33N 51°28' E 003°43'0 0.0
2016-Apr-24 11:33N 51°28' E 003°43'0 0.0
2016-Apr-24 10:33N 51°28' E 003°43'5 5.1
2016-Apr-24 09:34N 51°23' E 003°43'5 4.7
2016-Apr-24 08:33N 51°20' E 003°49'1 0.7
2016-Apr-24 07:34N 51°19' E 003°50'0 0.0
2016-Apr-24 06:33N 51°19' E 003°50'0 0.0
2016-Apr-24 05:33N 51°19' E 003°50'0 0.0
2016-Apr-24 04:33N 51°19' E 003°50'0 0.0
2016-Apr-24 03:33N 51°19' E 003°50'0 0.0
2016-Apr-24 02:33N 51°19' E 003°50'0 0.0
2016-Apr-24 01:33N 51°19' E 003°50'0 0.0
2016-Apr-24 00:34N 51°19' E 003°50'0 0.0
2016-Apr-23 23:33N 51°19' E 003°50'0 0.0
2016-Apr-23 22:33N 51°19' E 003°50'0 0.0
2016-Apr-23 21:34N 51°19' E 003°50'0 0.0
2016-Apr-23 20:33N 51°19' E 003°50'0 0.0
2016-Apr-23 19:33N 51°19' E 003°50'0 0.0
2016-Apr-23 18:33N 51°19' E 003°50'0 0.0
2016-Apr-23 17:33N 51°19' E 003°50'0 0.0
2016-Apr-23 16:33N 51°19' E 003°50'0 0.0
2016-Apr-23 15:34N 51°19' E 003°50'0 0.0
2016-Apr-23 14:34N 51°19' E 003°50'0 0.0
2016-Apr-23 13:33N 51°19' E 003°50'0 0.0
2016-Apr-23 12:33N 51°19' E 003°50'0 0.0
2016-Apr-23 11:34N 51°19' E 003°50'0 0.0
2016-Apr-23 10:33N 51°19' E 003°50'0 0.0
2016-Apr-23 09:33N 51°19' E 003°50'0 0.0
2016-Apr-23 08:34N 51°19' E 003°50'0 0.0
2016-Apr-23 07:33N 51°19' E 003°50'0 0.0
2016-Apr-23 06:33N 51°19' E 003°50'0 0.0
2016-Apr-23 05:34N 51°19' E 003°50'0 0.0
2016-Apr-23 04:33N 51°19' E 003°50'0 0.0
2016-Apr-23 03:33N 51°19' E 003°50'0 0.0
2016-Apr-23 02:34N 51°19' E 003°50'0 0.0
2016-Apr-23 01:33N 51°19' E 003°50'0 0.0
2016-Apr-23 00:34N 51°19' E 003°50'0 0.0
2016-Apr-22 23:33N 51°19' E 003°50'0 0.0
2016-Apr-22 22:33N 51°19' E 003°50'0 0.0
2016-Apr-22 21:33N 51°19' E 003°50'0 0.0
2016-Apr-22 20:33N 51°19' E 003°50'0 0.0
2016-Apr-22 19:34N 51°19' E 003°50'0 0.0
2016-Apr-22 18:33N 51°19' E 003°50'0 0.0
2016-Apr-22 17:33N 51°19' E 003°50'0 0.0
2016-Apr-22 16:34N 51°19' E 003°50'0 0.0
2016-Apr-22 15:33N 51°19' E 003°50'0 0.0
2016-Apr-22 14:33N 51°19' E 003°50'0 0.0
2016-Apr-22 13:33N 51°19' E 003°50'0 0.0
2016-Apr-22 12:33N 51°19' E 003°50'0 0.0
2016-Apr-22 11:33N 51°19' E 003°50'0 0.0
2016-Apr-22 10:33N 51°19' E 003°50'0 0.0
2016-Apr-22 09:33N 51°19' E 003°50'0 0.0
2016-Apr-22 08:33N 51°19' E 003°50'0 0.0
2016-Apr-22 07:33N 51°19' E 003°50'0 0.3
2016-Apr-22 06:34N 51°19' E 003°50'3 2.5
2016-Apr-22 05:33N 51°17' E 003°50'0 0.0
2016-Apr-22 04:33N 51°17' E 003°50'0 0.0
2016-Apr-22 03:33N 51°17' E 003°50'0 0.0
2016-Apr-22 02:33N 51°17' E 003°50'0 0.0
2016-Apr-22 01:33N 51°17' E 003°50'0 0.0
2016-Apr-22 00:33N 51°17' E 003°50'0 0.0
2016-Apr-21 23:34N 51°17' E 003°50'0 0.0
2016-Apr-21 22:34N 51°17' E 003°50'0 0.0
2016-Apr-21 21:34N 51°17' E 003°50'0 0.0
2016-Apr-21 20:33N 51°17' E 003°50'0 0.0
2016-Apr-21 19:33N 51°17' E 003°50'0 0.0
2016-Apr-21 18:33N 51°17' E 003°50'0 0.0
2016-Apr-21 17:33N 51°17' E 003°50'0 0.0
2016-Apr-21 16:33N 51°17' E 003°50'0 0.0
2016-Apr-21 15:33N 51°17' E 003°50'0 0.0
2016-Apr-21 14:33N 51°17' E 003°50'0 0.0
2016-Apr-21 13:33N 51°17' E 003°50'0 0.0
2016-Apr-21 12:33N 51°17' E 003°50'0 0.0
2016-Apr-21 11:33N 51°17' E 003°50'0 0.0
2016-Apr-21 10:33N 51°17' E 003°50'0 0.0
2016-Apr-21 09:33N 51°17' E 003°50'0 0.0
2016-Apr-21 08:33N 51°17' E 003°50'  
Track history (hours):
 
Tides and Currents Weather Stations Pressure Air Temp Water Temp Dewpoint Dewpoint Depression Visibility Wind Speed Wind Dir Waves Ship Positions

Audrey

Last reported at 2016-May-01 08:28 UTC. Time now 2016-May-04 09:50 UTC.
Position N 51°40' E 006°29'.

Length 85 m; draft 2.7 m.

Type: Wing in ground effect craft. MMSI: 244660106.

Date/timePositionNaut miles runAvg speedWind from/ knotsBaromVisibWave heightAir tempDewpointWater temp
2016-May-01 08:28N 51°40' E 006°29'7 7.0
2016-May-01 07:32N 51°36' E 006°36'7 6.9
2016-May-01 06:33N 51°31' E 006°43'8 7.1
2016-May-01 05:28N 51°23' E 006°44'6 6.2
2016-May-01 04:28N 51°17' E 006°42'3 3.8
2016-May-01 03:33N 51°13' E 006°43'0 0.0
2016-May-01 02:33N 51°13' E 006°43'0 0.0
2016-May-01 01:33N 51°13' E 006°43'0 0.0
2016-May-01 00:33N 51°13' E 006°43'0 0.0
2016-Apr-30 23:33N 51°13' E 006°43'0 0.0
2016-Apr-30 22:33N 51°13' E 006°43'0 0.0
2016-Apr-30 21:33N 51°13' E 006°43'0 0.0
2016-Apr-30 20:33N 51°13' E 006°43'0 0.0
2016-Apr-30 19:34N 51°13' E 006°43'0 0.0
2016-Apr-30 18:34N 51°13' E 006°43'0 0.0
2016-Apr-30 17:33N 51°13' E 006°43'0 0.1
2016-Apr-30 16:33N 51°13' E 006°43'6 5.8
2016-Apr-30 15:33N 51°09' E 006°49'14 7.1
2016-Apr-30 13:31N 50°56' E 006°58'18 0.4
2016-Apr-28 16:26N 50°40' E 007°11'5 5.8
2016-Apr-28 15:33N 50°44' E 007°07'6 5.6
2016-Apr-28 14:30N 50°49' E 007°01'3 3.4
2016-Apr-28 13:33N 50°52' E 007°02'4 4.3
2016-Apr-28 12:30N 50°56' E 006°58'3 0.1
2016-Apr-27 16:26N 50°59' E 006°59'12 3.8
2016-Apr-27 13:17N 51°10' E 006°51'2 3.2
2016-Apr-27 12:34N 51°09' E 006°48'3 3.4
2016-Apr-27 11:33N 51°11' E 006°44'3 2.7
2016-Apr-27 10:33N 51°14' E 006°46'8 3.8
2016-Apr-27 08:32N 51°21' E 006°41'3 2.9
2016-Apr-27 07:31N 51°23' E 006°44'4 4.4
2016-Apr-27 06:31N 51°27' E 006°43'3 3.0
2016-Apr-27 05:33N 51°30' E 006°43'5 4.5
2016-Apr-27 04:33N 51°34' E 006°41'3 3.3
2016-Apr-27 03:31N 51°36' E 006°36'0 0.3
2016-Apr-27 02:33N 51°36' E 006°36'0 0.0
2016-Apr-27 01:32N 51°36' E 006°36'0 0.0
2016-Apr-27 00:18N 51°36' E 006°36'0 0.0
2016-Apr-26 23:28N 51°36' E 006°36'0 0.0
2016-Apr-26 22:29N 51°36' E 006°36'0 0.0
2016-Apr-26 21:25N 51°36' E 006°36'1 0.8
2016-Apr-26 20:33N 51°37' E 006°35'3 3.5
2016-Apr-26 19:33N 51°40' E 006°32'61 5.1
2016-Apr-26 07:33N 51°49' E 004°54'8 7.9
2016-Apr-26 06:33N 51°49' E 004°41'6 5.8
2016-Apr-26 05:29N 51°43' E 004°38'21 2.1
2016-Apr-25 19:32N 51°38' E 004°05'7 6.6
2016-Apr-25 18:34N 51°32' E 004°00'5 5.2
2016-Apr-25 17:33N 51°27' E 003°58'7 6.9
2016-Apr-25 16:32N 51°22' E 003°50'7 6.8
2016-Apr-25 15:34N 51°27' E 003°42'0 0.2
2016-Apr-25 14:33N 51°27' E 003°43'0 0.0
2016-Apr-25 13:33N 51°27' E 003°43'0 0.0
2016-Apr-25 12:33N 51°27' E 003°43'0 0.0
2016-Apr-25 11:33N 51°27' E 003°43'0 0.0
2016-Apr-25 10:33N 51°27' E 003°43'1 0.8
2016-Apr-25 09:33N 51°27' E 003°42'1 1.1
2016-Apr-25 08:33N 51°28' E 003°43'0 0.0
2016-Apr-25 07:33N 51°28' E 003°43'0 0.0
2016-Apr-25 06:33N 51°28' E 003°43'0 0.0
2016-Apr-25 05:33N 51°28' E 003°43'0 0.0
2016-Apr-25 04:33N 51°28' E 003°43'0 0.0
2016-Apr-25 03:33N 51°28' E 003°43'0 0.0
2016-Apr-25 02:33N 51°28' E 003°43'0 0.0
2016-Apr-25 01:33N 51°28' E 003°43'0 0.0
2016-Apr-25 00:33N 51°28' E 003°43'0 0.0
2016-Apr-24 23:33N 51°28' E 003°43'0 0.0
2016-Apr-24 22:33N 51°28' E 003°43'0 0.0
2016-Apr-24 21:34N 51°28' E 003°43'0 0.0
2016-Apr-24 20:33N 51°28' E 003°43'0 0.0
2016-Apr-24 19:33N 51°28' E 003°43'0 0.0
2016-Apr-24 18:33N 51°28' E 003°43'0 0.0
2016-Apr-24 17:34N 51°28' E 003°43'0 0.0
2016-Apr-24 16:33N 51°28' E 003°43'0 0.0
2016-Apr-24 15:33N 51°28' E 003°43'0 0.0
2016-Apr-24 14:33N 51°28' E 003°43'0 0.0
2016-Apr-24 13:33N 51°28' E 003°43'0 0.0
2016-Apr-24 12:33N 51°28' E 003°43'0 0.0
2016-Apr-24 11:33N 51°28' E 003°43'0 0.0
2016-Apr-24 10:33N 51°28' E 003°43'5 5.1
2016-Apr-24 09:34N 51°23' E 003°43'5 4.7
2016-Apr-24 08:33N 51°20' E 003°49'1 0.7
2016-Apr-24 07:34N 51°19' E 003°50'0 0.0
2016-Apr-24 06:33N 51°19' E 003°50'0 0.0
2016-Apr-24 05:33N 51°19' E 003°50'0 0.0
2016-Apr-24 04:33N 51°19' E 003°50'0 0.0
2016-Apr-24 03:33N 51°19' E 003°50'0 0.0
2016-Apr-24 02:33N 51°19' E 003°50'0 0.0
2016-Apr-24 01:33N 51°19' E 003°50'0 0.0
2016-Apr-24 00:34N 51°19' E 003°50'0 0.0
2016-Apr-23 23:33N 51°19' E 003°50'0 0.0
2016-Apr-23 22:33N 51°19' E 003°50'0 0.0
2016-Apr-23 21:34N 51°19' E 003°50'0 0.0
2016-Apr-23 20:33N 51°19' E 003°50'0 0.0
2016-Apr-23 19:33N 51°19' E 003°50'0 0.0
2016-Apr-23 18:33N 51°19' E 003°50'0 0.0
2016-Apr-23 17:33N 51°19' E 003°50'0 0.0
2016-Apr-23 16:33N 51°19' E 003°50'0 0.0
2016-Apr-23 15:34N 51°19' E 003°50'0 0.0
2016-Apr-23 14:34N 51°19' E 003°50'0 0.0
2016-Apr-23 13:33N 51°19' E 003°50'0 0.0
2016-Apr-23 12:33N 51°19' E 003°50'0 0.0
2016-Apr-23 11:34N 51°19' E 003°50'0 0.0
2016-Apr-23 10:33N 51°19' E 003°50'0 0.0
2016-Apr-23 09:33N 51°19' E 003°50'0 0.0
2016-Apr-23 08:34N 51°19' E 003°50'0 0.0
2016-Apr-23 07:33N 51°19' E 003°50'0 0.0
2016-Apr-23 06:33N 51°19' E 003°50'0 0.0
2016-Apr-23 05:34N 51°19' E 003°50'0 0.0
2016-Apr-23 04:33N 51°19' E 003°50'0 0.0
2016-Apr-23 03:33N 51°19' E 003°50'0 0.0
2016-Apr-23 02:34N 51°19' E 003°50'0 0.0
2016-Apr-23 01:33N 51°19' E 003°50'0 0.0
2016-Apr-23 00:34N 51°19' E 003°50'0 0.0
2016-Apr-22 23:33N 51°19' E 003°50'0 0.0
2016-Apr-22 22:33N 51°19' E 003°50'0 0.0
2016-Apr-22 21:33N 51°19' E 003°50'0 0.0
2016-Apr-22 20:33N 51°19' E 003°50'0 0.0
2016-Apr-22 19:34N 51°19' E 003°50'0 0.0
2016-Apr-22 18:33N 51°19' E 003°50'0 0.0
2016-Apr-22 17:33N 51°19' E 003°50'0 0.0
2016-Apr-22 16:34N 51°19' E 003°50'0 0.0
2016-Apr-22 15:33N 51°19' E 003°50'0 0.0
2016-Apr-22 14:33N 51°19' E 003°50'0 0.0
2016-Apr-22 13:33N 51°19' E 003°50'0 0.0
2016-Apr-22 12:33N 51°19' E 003°50'0 0.0
2016-Apr-22 11:33N 51°19' E 003°50'0 0.0
2016-Apr-22 10:33N 51°19' E 003°50'0 0.0
2016-Apr-22 09:33N 51°19' E 003°50'0 0.0
2016-Apr-22 08:33N 51°19' E 003°50'0 0.0
2016-Apr-22 07:33N 51°19' E 003°50'0 0.3
2016-Apr-22 06:34N 51°19' E 003°50'3 2.5
2016-Apr-22 05:33N 51°17' E 003°50'0 0.0
2016-Apr-22 04:33N 51°17' E 003°50'0 0.0
2016-Apr-22 03:33N 51°17' E 003°50'0 0.0
2016-Apr-22 02:33N 51°17' E 003°50'0 0.0
2016-Apr-22 01:33N 51°17' E 003°50'0 0.0
2016-Apr-22 00:33N 51°17' E 003°50'0 0.0
2016-Apr-21 23:34N 51°17' E 003°50'0 0.0
2016-Apr-21 22:34N 51°17' E 003°50'0 0.0
2016-Apr-21 21:34N 51°17' E 003°50'0 0.0
2016-Apr-21 20:33N 51°17' E 003°50'0 0.0
2016-Apr-21 19:33N 51°17' E 003°50'0 0.0
2016-Apr-21 18:33N 51°17' E 003°50'0 0.0
2016-Apr-21 17:33N 51°17' E 003°50'0 0.0
2016-Apr-21 16:33N 51°17' E 003°50'0 0.0
2016-Apr-21 15:33N 51°17' E 003°50'0 0.0
2016-Apr-21 14:33N 51°17' E 003°50'0 0.0
2016-Apr-21 13:33N 51°17' E 003°50'0 0.0
2016-Apr-21 12:33N 51°17' E 003°50'0 0.0
2016-Apr-21 11:33N 51°17' E 003°50'0 0.0
2016-Apr-21 10:33N 51°17' E 003°50'0 0.0
2016-Apr-21 09:33N 51°17' E 003°50'0 0.0
2016-Apr-21 08:33N 51°17' E 003°50'  

Dump ship's entire track history